Estación Meteorológica Peña el Pijo (Robertgarden) [ 08/15/18 18:31:20 CEST ]

Fecha Hora Presion(HPa) Temp (°C) Humedad % Rocio (°C) Viento ( m/s) Direccion Lluvia 1Hora(mm) Lluvia 24H(mm) LLuvia Total(mm)
2018-Apr-26 01:01:57 1009.100 11.8 72 6.9         203.05
2018-Apr-26 02:01:31 1008.800 11.9 73 7.2         203.05
2018-Apr-26 03:01:35 1008.300 10.8 75 6.5         203.05
2018-Apr-26 04:01:54 1008.000 9.9 77 6.0         203.05
2018-Apr-26 05:01:36 1007.700 9.6 79 6.1         203.05
2018-Apr-26 06:01:39 1007.700 9.4 81 6.3         203.05
2018-Apr-26 07:01:43 1007.700 9.9 81 6.8         203.05
2018-Apr-26 08:01:32 1008.200 10.2 82 7.2         203.05
2018-Apr-26 09:01:53 1008.700 11.7 82 8.7         203.05
2018-Apr-26 10:01:53 1009.100 12.9 73 8.2         203.05
2018-Apr-26 11:01:36 1009.100 12.9 66 6.7 2.2 NE     203.05
2018-Apr-26 12:01:33 1009.400 17.5 56 8.6         203.05
2018-Apr-26 13:01:48 1008.600 19.4 47 7.8         203.05
2018-Apr-26 14:01:50 1008.200 20.6 44 7.9         203.05
2018-Apr-26 15:01:45 1008.200 20.5 42 7.1         203.05
2018-Apr-26 16:01:50 1007.500 22.9 34 6.1         203.05
2018-Apr-26 17:01:33 1007.300 22.4 35 6.1         203.05
2018-Apr-26 18:01:57 1007.200 22.5 34 5.8         203.05
2018-Apr-26 19:01:53 1007.400 21.1 36 5.3         203.05
2018-Apr-26 20:01:56 1007.700 18.7 44 6.1         203.05
2018-Apr-26 21:02:03 1008.000 15.9 51 5.8         203.05
2018-Apr-26 22:01:53 1008.400 13.3 59 5.4         203.05
2018-Apr-26 23:01:46 1009.100 11.0 66 4.9         203.05

Temperatura Máxima:22°    Temperatura Mínima:
Presión Máxima:1009.400 Hpa    Presión Mínima:1007.200 Hpa


Volver